sensor_id;sensor_type;location;lat;lon;timestamp;P1;durP1;ratioP1;P2;durP2;ratioP2
14923;SDS011;7554;43.600;1.480;2022-09-19T00:01:52;4.40;;;2.40;;
14923;SDS011;7554;43.600;1.480;2022-09-19T00:04:21;3.80;;;2.50;;
14923;SDS011;7554;43.600;1.480;2022-09-19T00:06:49;3.77;;;2.10;;
14923;SDS011;7554;43.600;1.480;2022-09-19T00:09:19;3.53;;;2.07;;
14923;SDS011;7554;43.600;1.480;2022-09-19T00:11:50;5.27;;;2.20;;
14923;SDS011;7554;43.600;1.480;2022-09-19T00:14:19;4.53;;;2.00;;
14923;SDS011;7554;43.600;1.480;2022-09-19T00:16:48;4.33;;;2.10;;
14923;SDS011;7554;43.600;1.480;2022-09-19T00:19:21;5.43;;;2.03;;
14923;SDS011;7554;43.600;1.480;2022-09-19T00:21:52;3.83;;;2.00;;
14923;SDS011;7554;43.600;1.480;2022-09-19T00:24:20;4.30;;;2.23;;
14923;SDS011;7554;43.600;1.480;2022-09-19T00:27:06;2.53;;;1.73;;
14923;SDS011;7554;43.600;1.480;2022-09-19T00:29:36;4.23;;;2.00;;
14923;SDS011;7554;43.600;1.480;2022-09-19T00:32:06;3.80;;;2.13;;
14923;SDS011;7554;43.600;1.480;2022-09-19T00:34:38;4.63;;;2.10;;
14923;SDS011;7554;43.600;1.480;2022-09-19T00:37:06;4.50;;;1.80;;
14923;SDS011;7554;43.600;1.480;2022-09-19T00:39:34;3.40;;;1.70;;
14923;SDS011;7554;43.600;1.480;2022-09-19T00:42:02;4.93;;;1.60;;
14923;SDS011;7554;43.600;1.480;2022-09-19T00:44:54;5.13;;;1.33;;
14923;SDS011;7554;43.600;1.480;2022-09-19T00:47:24;3.40;;;1.20;;
14923;SDS011;7554;43.600;1.480;2022-09-19T00:50:00;4.80;;;1.20;;
14923;SDS011;7554;43.600;1.480;2022-09-19T00:52:33;3.17;;;1.20;;
14923;SDS011;7554;43.600;1.480;2022-09-19T00:55:05;4.47;;;1.40;;
14923;SDS011;7554;43.600;1.480;2022-09-19T00:57:36;2.93;;;1.30;;
14923;SDS011;7554;43.600;1.480;2022-09-19T01:00:11;1.70;;;0.97;;
14923;SDS011;7554;43.600;1.480;2022-09-19T01:02:39;2.83;;;1.20;;
14923;SDS011;7554;43.600;1.480;2022-09-19T01:05:07;3.03;;;1.20;;
14923;SDS011;7554;43.600;1.480;2022-09-19T01:07:40;3.57;;;1.60;;
14923;SDS011;7554;43.600;1.480;2022-09-19T01:10:16;6.17;;;1.73;;
14923;SDS011;7554;43.600;1.480;2022-09-19T01:12:56;1.97;;;1.50;;
14923;SDS011;7554;43.600;1.480;2022-09-19T01:15:37;3.43;;;1.73;;
14923;SDS011;7554;43.600;1.480;2022-09-19T01:18:12;3.93;;;1.73;;
14923;SDS011;7554;43.600;1.480;2022-09-19T01:23:50;3.13;;;1.50;;
14923;SDS011;7554;43.600;1.480;2022-09-19T01:26:45;5.07;;;1.57;;
14923;SDS011;7554;43.600;1.480;2022-09-19T01:29:36;3.77;;;1.40;;
14923;SDS011;7554;43.600;1.480;2022-09-19T01:32:08;5.27;;;2.23;;
14923;SDS011;7554;43.600;1.480;2022-09-19T01:34:42;3.13;;;1.60;;
14923;SDS011;7554;43.600;1.480;2022-09-19T01:37:15;4.10;;;2.10;;
14923;SDS011;7554;43.600;1.480;2022-09-19T01:39:45;4.77;;;1.90;;
14923;SDS011;7554;43.600;1.480;2022-09-19T01:42:17;2.50;;;1.70;;
14923;SDS011;7554;43.600;1.480;2022-09-19T01:44:47;6.23;;;2.20;;
14923;SDS011;7554;43.600;1.480;2022-09-19T01:47:19;3.70;;;1.83;;
14923;SDS011;7554;43.600;1.480;2022-09-19T01:49:52;3.80;;;1.80;;
14923;SDS011;7554;43.600;1.480;2022-09-19T01:52:31;5.97;;;2.57;;
14923;SDS011;7554;43.600;1.480;2022-09-19T01:55:14;4.33;;;2.53;;
14923;SDS011;7554;43.600;1.480;2022-09-19T01:57:48;2.27;;;1.70;;
14923;SDS011;7554;43.600;1.480;2022-09-19T02:00:25;3.60;;;2.17;;
14923;SDS011;7554;43.600;1.480;2022-09-19T02:03:02;2.53;;;1.73;;
14923;SDS011;7554;43.600;1.480;2022-09-19T02:05:42;4.33;;;1.80;;
14923;SDS011;7554;43.600;1.480;2022-09-19T02:08:18;4.17;;;1.33;;
14923;SDS011;7554;43.600;1.480;2022-09-19T02:10:54;2.70;;;1.30;;
14923;SDS011;7554;43.600;1.480;2022-09-19T02:13:26;4.17;;;1.30;;
14923;SDS011;7554;43.600;1.480;2022-09-19T02:16:00;2.73;;;1.20;;
14923;SDS011;7554;43.600;1.480;2022-09-19T02:18:34;3.10;;;1.10;;
14923;SDS011;7554;43.600;1.480;2022-09-19T02:21:06;4.67;;;1.10;;
14923;SDS011;7554;43.600;1.480;2022-09-19T02:23:39;2.73;;;1.40;;
14923;SDS011;7554;43.600;1.480;2022-09-19T02:26:12;1.73;;;1.10;;
14923;SDS011;7554;43.600;1.480;2022-09-19T02:28:46;4.33;;;1.27;;
14923;SDS011;7554;43.600;1.480;2022-09-19T02:31:19;3.37;;;1.17;;
14923;SDS011;7554;43.600;1.480;2022-09-19T02:33:52;2.93;;;1.27;;
14923;SDS011;7554;43.600;1.480;2022-09-19T02:36:21;3.73;;;1.30;;
14923;SDS011;7554;43.600;1.480;2022-09-19T02:38:56;3.90;;;1.60;;
14923;SDS011;7554;43.600;1.480;2022-09-19T02:41:29;3.67;;;1.93;;
14923;SDS011;7554;43.600;1.480;2022-09-19T02:44:03;3.70;;;1.80;;
14923;SDS011;7554;43.600;1.480;2022-09-19T02:46:46;5.10;;;1.70;;
14923;SDS011;7554;43.600;1.480;2022-09-19T02:49:22;2.97;;;1.83;;
14923;SDS011;7554;43.600;1.480;2022-09-19T02:52:01;3.63;;;1.90;;
14923;SDS011;7554;43.600;1.480;2022-09-19T02:54:35;4.77;;;1.40;;
14923;SDS011;7554;43.600;1.480;2022-09-19T02:57:05;2.57;;;1.70;;
14923;SDS011;7554;43.600;1.480;2022-09-19T02:59:36;5.90;;;1.60;;
14923;SDS011;7554;43.600;1.480;2022-09-19T03:02:09;9.37;;;1.50;;
14923;SDS011;7554;43.600;1.480;2022-09-19T03:04:43;4.80;;;2.00;;
14923;SDS011;7554;43.600;1.480;2022-09-19T03:07:14;3.37;;;1.37;;
14923;SDS011;7554;43.600;1.480;2022-09-19T03:09:52;4.57;;;1.70;;
14923;SDS011;7554;43.600;1.480;2022-09-19T03:12:27;2.50;;;1.50;;
14923;SDS011;7554;43.600;1.480;2022-09-19T03:15:03;2.80;;;1.60;;
14923;SDS011;7554;43.600;1.480;2022-09-19T03:17:35;3.87;;;1.40;;
14923;SDS011;7554;43.600;1.480;2022-09-19T03:20:07;3.10;;;1.70;;
14923;SDS011;7554;43.600;1.480;2022-09-19T03:22:37;4.17;;;1.57;;
14923;SDS011;7554;43.600;1.480;2022-09-19T03:25:05;5.13;;;1.50;;
14923;SDS011;7554;43.600;1.480;2022-09-19T03:27:34;4.60;;;1.60;;
14923;SDS011;7554;43.600;1.480;2022-09-19T03:30:03;6.93;;;2.00;;
14923;SDS011;7554;43.600;1.480;2022-09-19T03:32:34;5.03;;;1.90;;
14923;SDS011;7554;43.600;1.480;2022-09-19T03:35:02;3.13;;;1.80;;
14923;SDS011;7554;43.600;1.480;2022-09-19T03:37:30;3.70;;;2.10;;
14923;SDS011;7554;43.600;1.480;2022-09-19T03:39:59;3.77;;;1.50;;
14923;SDS011;7554;43.600;1.480;2022-09-19T03:42:26;3.97;;;1.80;;
14923;SDS011;7554;43.600;1.480;2022-09-19T03:44:57;6.40;;;1.83;;
14923;SDS011;7554;43.600;1.480;2022-09-19T03:47:24;3.93;;;2.10;;
14923;SDS011;7554;43.600;1.480;2022-09-19T03:49:53;3.13;;;1.80;;
14923;SDS011;7554;43.600;1.480;2022-09-19T03:52:23;4.27;;;1.77;;
14923;SDS011;7554;43.600;1.480;2022-09-19T03:54:52;3.50;;;1.80;;
14923;SDS011;7554;43.600;1.480;2022-09-19T03:57:20;3.20;;;2.00;;
14923;SDS011;7554;43.600;1.480;2022-09-19T03:59:47;3.23;;;1.70;;
14923;SDS011;7554;43.600;1.480;2022-09-19T04:02:15;4.03;;;1.67;;
14923;SDS011;7554;43.600;1.480;2022-09-19T04:04:42;4.13;;;2.10;;
14923;SDS011;7554;43.600;1.480;2022-09-19T04:07:11;4.33;;;1.70;;
14923;SDS011;7554;43.600;1.480;2022-09-19T04:09:40;2.80;;;1.63;;
14923;SDS011;7554;43.600;1.480;2022-09-19T04:12:08;5.83;;;2.00;;
14923;SDS011;7554;43.600;1.480;2022-09-19T04:14:38;3.00;;;1.77;;
14923;SDS011;7554;43.600;1.480;2022-09-19T04:17:05;4.73;;;1.97;;
14923;SDS011;7554;43.600;1.480;2022-09-19T04:19:34;6.17;;;1.70;;
14923;SDS011;7554;43.600;1.480;2022-09-19T04:22:02;3.90;;;1.97;;
14923;SDS011;7554;43.600;1.480;2022-09-19T04:24:31;4.90;;;1.93;;
14923;SDS011;7554;43.600;1.480;2022-09-19T04:26:58;3.97;;;1.87;;
14923;SDS011;7554;43.600;1.480;2022-09-19T04:29:27;5.17;;;1.80;;
14923;SDS011;7554;43.600;1.480;2022-09-19T04:31:55;3.20;;;2.00;;
14923;SDS011;7554;43.600;1.480;2022-09-19T04:34:27;4.00;;;1.97;;
14923;SDS011;7554;43.600;1.480;2022-09-19T04:36:55;2.87;;;1.80;;
14923;SDS011;7554;43.600;1.480;2022-09-19T04:39:24;6.47;;;2.30;;
14923;SDS011;7554;43.600;1.480;2022-09-19T04:41:52;5.30;;;2.30;;
14923;SDS011;7554;43.600;1.480;2022-09-19T04:44:20;4.63;;;2.20;;
14923;SDS011;7554;43.600;1.480;2022-09-19T04:46:54;4.30;;;1.93;;
14923;SDS011;7554;43.600;1.480;2022-09-19T04:49:22;4.93;;;2.00;;
14923;SDS011;7554;43.600;1.480;2022-09-19T04:51:51;3.07;;;1.80;;
14923;SDS011;7554;43.600;1.480;2022-09-19T04:54:22;3.67;;;1.80;;
14923;SDS011;7554;43.600;1.480;2022-09-19T04:56:51;4.70;;;1.50;;
14923;SDS011;7554;43.600;1.480;2022-09-19T04:59:19;4.60;;;1.47;;
14923;SDS011;7554;43.600;1.480;2022-09-19T05:01:47;5.00;;;1.50;;
14923;SDS011;7554;43.600;1.480;2022-09-19T05:04:15;4.67;;;1.40;;
14923;SDS011;7554;43.600;1.480;2022-09-19T05:06:43;5.33;;;1.17;;
14923;SDS011;7554;43.600;1.480;2022-09-19T05:09:10;4.60;;;1.67;;
14923;SDS011;7554;43.600;1.480;2022-09-19T05:11:38;3.90;;;2.00;;
14923;SDS011;7554;43.600;1.480;2022-09-19T05:14:12;4.47;;;1.70;;
14923;SDS011;7554;43.600;1.480;2022-09-19T05:16:40;4.50;;;1.80;;
14923;SDS011;7554;43.600;1.480;2022-09-19T05:19:08;6.13;;;1.83;;
14923;SDS011;7554;43.600;1.480;2022-09-19T05:21:35;4.17;;;1.70;;
14923;SDS011;7554;43.600;1.480;2022-09-19T05:24:03;7.50;;;2.10;;
14923;SDS011;7554;43.600;1.480;2022-09-19T05:26:31;3.93;;;2.10;;
14923;SDS011;7554;43.600;1.480;2022-09-19T05:28:58;4.13;;;1.90;;
14923;SDS011;7554;43.600;1.480;2022-09-19T05:31:27;4.30;;;2.10;;
14923;SDS011;7554;43.600;1.480;2022-09-19T05:33:54;4.40;;;2.17;;
14923;SDS011;7554;43.600;1.480;2022-09-19T05:36:21;3.60;;;1.80;;
14923;SDS011;7554;43.600;1.480;2022-09-19T05:38:48;5.57;;;2.50;;
14923;SDS011;7554;43.600;1.480;2022-09-19T05:41:17;5.87;;;2.00;;
14923;SDS011;7554;43.600;1.480;2022-09-19T05:43:44;4.47;;;1.97;;
14923;SDS011;7554;43.600;1.480;2022-09-19T05:46:12;5.57;;;2.13;;
14923;SDS011;7554;43.600;1.480;2022-09-19T05:48:41;4.87;;;1.90;;
14923;SDS011;7554;43.600;1.480;2022-09-19T05:51:08;4.63;;;2.07;;
14923;SDS011;7554;43.600;1.480;2022-09-19T05:53:35;4.43;;;2.20;;
14923;SDS011;7554;43.600;1.480;2022-09-19T05:56:21;2.50;;;1.80;;
14923;SDS011;7554;43.600;1.480;2022-09-19T05:58:51;3.57;;;2.10;;
14923;SDS011;7554;43.600;1.480;2022-09-19T06:01:18;5.33;;;2.37;;
14923;SDS011;7554;43.600;1.480;2022-09-19T06:03:47;4.80;;;2.20;;
14923;SDS011;7554;43.600;1.480;2022-09-19T06:06:15;4.30;;;2.40;;
14923;SDS011;7554;43.600;1.480;2022-09-19T06:08:45;7.60;;;2.10;;
14923;SDS011;7554;43.600;1.480;2022-09-19T06:11:13;7.60;;;2.87;;
14923;SDS011;7554;43.600;1.480;2022-09-19T06:13:41;6.97;;;2.33;;
14923;SDS011;7554;43.600;1.480;2022-09-19T06:16:31;4.67;;;2.27;;
14923;SDS011;7554;43.600;1.480;2022-09-19T06:19:00;7.57;;;2.20;;
14923;SDS011;7554;43.600;1.480;2022-09-19T06:21:27;5.73;;;2.20;;
14923;SDS011;7554;43.600;1.480;2022-09-19T06:23:57;6.50;;;2.37;;
14923;SDS011;7554;43.600;1.480;2022-09-19T06:26:24;3.60;;;2.30;;
14923;SDS011;7554;43.600;1.480;2022-09-19T06:28:51;6.80;;;2.20;;
14923;SDS011;7554;43.600;1.480;2022-09-19T06:31:19;6.93;;;2.43;;
14923;SDS011;7554;43.600;1.480;2022-09-19T06:33:46;4.13;;;2.13;;
14923;SDS011;7554;43.600;1.480;2022-09-19T06:36:15;6.30;;;2.77;;
14923;SDS011;7554;43.600;1.480;2022-09-19T06:38:42;3.50;;;2.40;;
14923;SDS011;7554;43.600;1.480;2022-09-19T06:41:10;5.30;;;2.37;;
14923;SDS011;7554;43.600;1.480;2022-09-19T06:43:37;4.40;;;1.90;;
14923;SDS011;7554;43.600;1.480;2022-09-19T06:46:05;4.50;;;2.40;;
14923;SDS011;7554;43.600;1.480;2022-09-19T06:48:34;7.30;;;2.57;;
14923;SDS011;7554;43.600;1.480;2022-09-19T06:51:01;7.87;;;2.50;;
14923;SDS011;7554;43.600;1.480;2022-09-19T06:53:30;5.57;;;2.43;;
14923;SDS011;7554;43.600;1.480;2022-09-19T06:55:58;4.50;;;2.60;;
14923;SDS011;7554;43.600;1.480;2022-09-19T06:58:26;7.73;;;2.20;;
14923;SDS011;7554;43.600;1.480;2022-09-19T07:00:53;7.33;;;2.20;;
14923;SDS011;7554;43.600;1.480;2022-09-19T07:03:20;6.43;;;2.20;;
14923;SDS011;7554;43.600;1.480;2022-09-19T07:05:47;6.50;;;2.33;;
14923;SDS011;7554;43.600;1.480;2022-09-19T07:08:16;7.57;;;2.30;;
14923;SDS011;7554;43.600;1.480;2022-09-19T07:10:45;10.67;;;2.40;;
14923;SDS011;7554;43.600;1.480;2022-09-19T07:13:13;8.27;;;1.80;;
14923;SDS011;7554;43.600;1.480;2022-09-19T07:15:41;7.77;;;2.27;;
14923;SDS011;7554;43.600;1.480;2022-09-19T07:18:09;16.93;;;2.57;;
14923;SDS011;7554;43.600;1.480;2022-09-19T07:20:38;11.53;;;2.10;;
14923;SDS011;7554;43.600;1.480;2022-09-19T07:23:07;8.77;;;2.30;;
14923;SDS011;7554;43.600;1.480;2022-09-19T07:25:38;12.20;;;2.30;;
14923;SDS011;7554;43.600;1.480;2022-09-19T07:28:09;10.67;;;2.00;;
14923;SDS011;7554;43.600;1.480;2022-09-19T07:30:37;8.13;;;2.43;;
14923;SDS011;7554;43.600;1.480;2022-09-19T07:33:06;8.93;;;2.30;;
14923;SDS011;7554;43.600;1.480;2022-09-19T07:35:35;13.10;;;2.10;;
14923;SDS011;7554;43.600;1.480;2022-09-19T07:38:03;7.67;;;2.47;;
14923;SDS011;7554;43.600;1.480;2022-09-19T07:40:32;8.07;;;2.57;;
14923;SDS011;7554;43.600;1.480;2022-09-19T07:43:00;7.07;;;2.10;;
14923;SDS011;7554;43.600;1.480;2022-09-19T07:45:31;8.20;;;2.20;;
14923;SDS011;7554;43.600;1.480;2022-09-19T07:47:59;10.53;;;2.40;;
14923;SDS011;7554;43.600;1.480;2022-09-19T07:50:27;11.53;;;3.00;;
14923;SDS011;7554;43.600;1.480;2022-09-19T07:52:57;10.00;;;2.37;;
14923;SDS011;7554;43.600;1.480;2022-09-19T07:55:25;12.07;;;2.67;;
14923;SDS011;7554;43.600;1.480;2022-09-19T07:57:54;8.13;;;2.03;;
14923;SDS011;7554;43.600;1.480;2022-09-19T08:00:22;5.83;;;2.10;;
14923;SDS011;7554;43.600;1.480;2022-09-19T08:02:55;11.33;;;2.30;;
14923;SDS011;7554;43.600;1.480;2022-09-19T08:05:23;9.93;;;2.43;;
14923;SDS011;7554;43.600;1.480;2022-09-19T08:07:53;9.60;;;2.80;;
14923;SDS011;7554;43.600;1.480;2022-09-19T08:10:20;10.07;;;2.10;;
14923;SDS011;7554;43.600;1.480;2022-09-19T08:12:48;14.27;;;2.10;;
14923;SDS011;7554;43.600;1.480;2022-09-19T08:15:17;7.50;;;2.47;;
14923;SDS011;7554;43.600;1.480;2022-09-19T08:17:55;6.73;;;1.90;;
14923;SDS011;7554;43.600;1.480;2022-09-19T08:20:23;9.70;;;2.47;;
14923;SDS011;7554;43.600;1.480;2022-09-19T08:22:53;9.13;;;1.90;;
14923;SDS011;7554;43.600;1.480;2022-09-19T08:25:23;7.40;;;2.00;;
14923;SDS011;7554;43.600;1.480;2022-09-19T08:27:51;5.87;;;1.90;;
14923;SDS011;7554;43.600;1.480;2022-09-19T08:30:18;10.80;;;1.80;;
14923;SDS011;7554;43.600;1.480;2022-09-19T08:32:46;9.43;;;2.27;;
14923;SDS011;7554;43.600;1.480;2022-09-19T08:35:15;6.67;;;1.63;;
14923;SDS011;7554;43.600;1.480;2022-09-19T08:37:43;7.27;;;1.87;;
14923;SDS011;7554;43.600;1.480;2022-09-19T08:40:12;9.23;;;2.20;;
14923;SDS011;7554;43.600;1.480;2022-09-19T08:42:43;9.30;;;2.07;;
14923;SDS011;7554;43.600;1.480;2022-09-19T08:45:24;6.33;;;1.60;;
14923;SDS011;7554;43.600;1.480;2022-09-19T08:47:58;8.90;;;1.87;;
14923;SDS011;7554;43.600;1.480;2022-09-19T08:50:32;9.60;;;2.17;;
14923;SDS011;7554;43.600;1.480;2022-09-19T08:53:04;11.87;;;2.03;;
14923;SDS011;7554;43.600;1.480;2022-09-19T08:55:36;6.47;;;1.73;;
14923;SDS011;7554;43.600;1.480;2022-09-19T08:58:07;6.70;;;2.07;;
14923;SDS011;7554;43.600;1.480;2022-09-19T09:00:42;8.00;;;1.90;;
14923;SDS011;7554;43.600;1.480;2022-09-19T09:03:12;5.70;;;1.53;;
14923;SDS011;7554;43.600;1.480;2022-09-19T09:05:46;5.63;;;2.17;;
14923;SDS011;7554;43.600;1.480;2022-09-19T09:08:25;7.43;;;3.13;;
14923;SDS011;7554;43.600;1.480;2022-09-19T09:11:01;4.83;;;1.70;;
14923;SDS011;7554;43.600;1.480;2022-09-19T09:13:38;7.33;;;1.67;;
14923;SDS011;7554;43.600;1.480;2022-09-19T09:16:13;6.43;;;1.70;;
14923;SDS011;7554;43.600;1.480;2022-09-19T09:19:01;7.83;;;2.30;;
14923;SDS011;7554;43.600;1.480;2022-09-19T09:21:46;6.67;;;1.63;;
14923;SDS011;7554;43.600;1.480;2022-09-19T09:24:20;7.40;;;1.50;;
14923;SDS011;7554;43.600;1.480;2022-09-19T09:26:50;4.23;;;1.37;;
14923;SDS011;7554;43.600;1.480;2022-09-19T09:29:21;7.43;;;1.50;;
14923;SDS011;7554;43.600;1.480;2022-09-19T09:31:54;2.67;;;1.70;;
14923;SDS011;7554;43.600;1.480;2022-09-19T09:34:26;3.93;;;1.37;;
14923;SDS011;7554;43.600;1.480;2022-09-19T09:36:58;7.97;;;2.13;;
14923;SDS011;7554;43.600;1.480;2022-09-19T09:39:30;7.87;;;2.17;;
14923;SDS011;7554;43.600;1.480;2022-09-19T09:42:15;5.27;;;1.90;;
14923;SDS011;7554;43.600;1.480;2022-09-19T09:44:53;5.23;;;1.50;;
14923;SDS011;7554;43.600;1.480;2022-09-19T09:47:37;7.97;;;2.20;;
14923;SDS011;7554;43.600;1.480;2022-09-19T09:53:16;6.47;;;1.70;;
14923;SDS011;7554;43.600;1.480;2022-09-19T09:55:53;6.20;;;1.50;;
14923;SDS011;7554;43.600;1.480;2022-09-19T09:58:43;4.50;;;1.70;;
14923;SDS011;7554;43.600;1.480;2022-09-19T10:01:25;5.10;;;1.40;;
14923;SDS011;7554;43.600;1.480;2022-09-19T10:04:19;8.30;;;1.80;;
14923;SDS011;7554;43.600;1.480;2022-09-19T10:06:56;4.97;;;1.47;;
14923;SDS011;7554;43.600;1.480;2022-09-19T10:09:39;7.13;;;1.40;;
14923;SDS011;7554;43.600;1.480;2022-09-19T10:12:13;3.47;;;1.60;;
14923;SDS011;7554;43.600;1.480;2022-09-19T10:14:47;2.73;;;1.50;;
14923;SDS011;7554;43.600;1.480;2022-09-19T10:17:20;5.53;;;1.50;;
14923;SDS011;7554;43.600;1.480;2022-09-19T10:19:50;7.87;;;1.97;;
14923;SDS011;7554;43.600;1.480;2022-09-19T10:22:23;1.93;;;1.40;;
14923;SDS011;7554;43.600;1.480;2022-09-19T10:24:52;7.10;;;1.70;;
14923;SDS011;7554;43.600;1.480;2022-09-19T10:27:22;5.57;;;1.67;;
14923;SDS011;7554;43.600;1.480;2022-09-19T10:29:55;3.30;;;1.67;;
14923;SDS011;7554;43.600;1.480;2022-09-19T10:32:25;4.90;;;1.70;;
14923;SDS011;7554;43.600;1.480;2022-09-19T10:35:18;2.70;;;1.50;;
14923;SDS011;7554;43.600;1.480;2022-09-19T10:37:52;3.10;;;1.50;;
14923;SDS011;7554;43.600;1.480;2022-09-19T10:40:25;2.17;;;1.50;;
14923;SDS011;7554;43.600;1.480;2022-09-19T10:42:53;5.83;;;1.43;;
14923;SDS011;7554;43.600;1.480;2022-09-19T10:45:22;8.93;;;1.70;;
14923;SDS011;7554;43.600;1.480;2022-09-19T10:47:53;4.10;;;1.60;;
14923;SDS011;7554;43.600;1.480;2022-09-19T10:50:23;7.03;;;2.13;;
14923;SDS011;7554;43.600;1.480;2022-09-19T10:52:51;7.47;;;1.60;;
14923;SDS011;7554;43.600;1.480;2022-09-19T10:55:28;4.40;;;1.70;;
14923;SDS011;7554;43.600;1.480;2022-09-19T10:57:59;5.97;;;1.43;;
14923;SDS011;7554;43.600;1.480;2022-09-19T11:00:29;4.37;;;1.53;;
14923;SDS011;7554;43.600;1.480;2022-09-19T11:03:02;7.53;;;1.53;;
14923;SDS011;7554;43.600;1.480;2022-09-19T11:05:33;7.40;;;1.80;;
14923;SDS011;7554;43.600;1.480;2022-09-19T11:08:03;4.50;;;1.47;;
14923;SDS011;7554;43.600;1.480;2022-09-19T11:10:45;3.40;;;1.30;;
14923;SDS011;7554;43.600;1.480;2022-09-19T11:13:13;6.33;;;1.50;;
14923;SDS011;7554;43.600;1.480;2022-09-19T11:15:54;6.00;;;1.40;;
14923;SDS011;7554;43.600;1.480;2022-09-19T11:18:42;5.40;;;1.50;;
14923;SDS011;7554;43.600;1.480;2022-09-19T11:21:34;3.00;;;1.57;;
14923;SDS011;7554;43.600;1.480;2022-09-19T11:24:19;6.00;;;1.83;;
14923;SDS011;7554;43.600;1.480;2022-09-19T11:27:26;7.20;;;1.70;;
14923;SDS011;7554;43.600;1.480;2022-09-19T11:30:07;9.50;;;1.67;;
14923;SDS011;7554;43.600;1.480;2022-09-19T11:32:49;4.50;;;1.63;;
14923;SDS011;7554;43.600;1.480;2022-09-19T11:35:32;4.77;;;1.70;;
14923;SDS011;7554;43.600;1.480;2022-09-19T11:38:12;3.97;;;1.60;;
14923;SDS011;7554;43.600;1.480;2022-09-19T11:41:00;3.13;;;1.40;;
14923;SDS011;7554;43.600;1.480;2022-09-19T11:43:43;7.30;;;1.93;;
14923;SDS011;7554;43.600;1.480;2022-09-19T11:46:27;3.90;;;1.73;;
14923;SDS011;7554;43.600;1.480;2022-09-19T11:49:14;6.03;;;1.63;;
14923;SDS011;7554;43.600;1.480;2022-09-19T11:51:58;7.57;;;1.70;;
14923;SDS011;7554;43.600;1.480;2022-09-19T11:57:35;3.57;;;1.60;;
14923;SDS011;7554;43.600;1.480;2022-09-19T12:00:16;6.10;;;1.77;;
14923;SDS011;7554;43.600;1.480;2022-09-19T12:05:49;4.70;;;1.53;;
14923;SDS011;7554;43.600;1.480;2022-09-19T12:08:33;6.80;;;1.80;;
14923;SDS011;7554;43.600;1.480;2022-09-19T12:11:11;2.77;;;1.33;;
14923;SDS011;7554;43.600;1.480;2022-09-19T12:13:42;2.87;;;1.83;;
14923;SDS011;7554;43.600;1.480;2022-09-19T12:16:17;5.07;;;1.20;;
14923;SDS011;7554;43.600;1.480;2022-09-19T12:18:47;4.03;;;1.50;;
14923;SDS011;7554;43.600;1.480;2022-09-19T12:21:20;7.77;;;1.80;;
14923;SDS011;7554;43.600;1.480;2022-09-19T12:23:50;6.43;;;1.77;;
14923;SDS011;7554;43.600;1.480;2022-09-19T12:26:42;3.97;;;1.50;;
14923;SDS011;7554;43.600;1.480;2022-09-19T12:29:20;5.30;;;1.67;;
14923;SDS011;7554;43.600;1.480;2022-09-19T12:31:56;5.00;;;1.50;;
14923;SDS011;7554;43.600;1.480;2022-09-19T12:34:30;4.60;;;1.37;;
14923;SDS011;7554;43.600;1.480;2022-09-19T12:37:05;2.53;;;1.87;;
14923;SDS011;7554;43.600;1.480;2022-09-19T12:39:42;6.60;;;1.70;;
14923;SDS011;7554;43.600;1.480;2022-09-19T12:42:16;2.90;;;1.53;;
14923;SDS011;7554;43.600;1.480;2022-09-19T12:44:53;3.00;;;1.40;;
14923;SDS011;7554;43.600;1.480;2022-09-19T12:47:35;6.63;;;1.53;;
14923;SDS011;7554;43.600;1.480;2022-09-19T12:50:20;5.43;;;2.20;;
14923;SDS011;7554;43.600;1.480;2022-09-19T12:53:08;4.73;;;1.50;;
14923;SDS011;7554;43.600;1.480;2022-09-19T12:55:59;4.57;;;1.83;;
14923;SDS011;7554;43.600;1.480;2022-09-19T12:58:31;3.27;;;1.50;;
14923;SDS011;7554;43.600;1.480;2022-09-19T13:01:10;1.63;;;1.30;;
14923;SDS011;7554;43.600;1.480;2022-09-19T13:03:46;4.37;;;1.67;;
14923;SDS011;7554;43.600;1.480;2022-09-19T13:06:19;2.07;;;1.40;;
14923;SDS011;7554;43.600;1.480;2022-09-19T13:08:52;4.13;;;2.37;;
14923;SDS011;7554;43.600;1.480;2022-09-19T13:11:29;3.60;;;1.50;;
14923;SDS011;7554;43.600;1.480;2022-09-19T13:14:03;8.37;;;1.83;;
14923;SDS011;7554;43.600;1.480;2022-09-19T13:16:39;3.93;;;1.70;;
14923;SDS011;7554;43.600;1.480;2022-09-19T13:19:25;5.07;;;1.70;;
14923;SDS011;7554;43.600;1.480;2022-09-19T13:22:14;2.47;;;1.50;;
14923;SDS011;7554;43.600;1.480;2022-09-19T13:24:59;2.90;;;1.60;;
14923;SDS011;7554;43.600;1.480;2022-09-19T13:27:27;2.87;;;1.33;;
14923;SDS011;7554;43.600;1.480;2022-09-19T13:29:58;4.03;;;1.77;;
14923;SDS011;7554;43.600;1.480;2022-09-19T13:32:30;2.83;;;1.40;;
14923;SDS011;7554;43.600;1.480;2022-09-19T13:35:20;3.43;;;1.87;;
14923;SDS011;7554;43.600;1.480;2022-09-19T13:37:50;6.73;;;2.10;;
14923;SDS011;7554;43.600;1.480;2022-09-19T13:40:28;7.30;;;1.47;;
14923;SDS011;7554;43.600;1.480;2022-09-19T13:43:05;5.50;;;2.20;;
14923;SDS011;7554;43.600;1.480;2022-09-19T13:45:46;2.97;;;1.37;;
14923;SDS011;7554;43.600;1.480;2022-09-19T13:48:23;3.13;;;1.70;;
14923;SDS011;7554;43.600;1.480;2022-09-19T13:51:01;2.97;;;1.80;;
14923;SDS011;7554;43.600;1.480;2022-09-19T13:53:35;3.43;;;1.50;;
14923;SDS011;7554;43.600;1.480;2022-09-19T13:56:04;2.97;;;1.60;;
14923;SDS011;7554;43.600;1.480;2022-09-19T13:59:09;2.17;;;1.20;;
14923;SDS011;7554;43.600;1.480;2022-09-19T14:01:52;2.80;;;1.30;;
14923;SDS011;7554;43.600;1.480;2022-09-19T14:04:22;2.83;;;1.63;;
14923;SDS011;7554;43.600;1.480;2022-09-19T14:07:18;7.17;;;1.57;;
14923;SDS011;7554;43.600;1.480;2022-09-19T14:09:49;4.10;;;1.93;;
14923;SDS011;7554;43.600;1.480;2022-09-19T14:15:31;3.47;;;1.30;;
14923;SDS011;7554;43.600;1.480;2022-09-19T14:24:23;2.77;;;1.87;;
14923;SDS011;7554;43.600;1.480;2022-09-19T14:30:43;4.73;;;2.00;;
14923;SDS011;7554;43.600;1.480;2022-09-19T14:36:26;2.20;;;1.40;;
14923;SDS011;7554;43.600;1.480;2022-09-19T14:48:17;4.30;;;1.60;;
14923;SDS011;7554;43.600;1.480;2022-09-19T14:51:03;8.50;;;1.43;;
14923;SDS011;7554;43.600;1.480;2022-09-19T14:53:43;8.43;;;1.80;;
14923;SDS011;7554;43.600;1.480;2022-09-19T14:56:17;4.57;;;1.50;;
14923;SDS011;7554;43.600;1.480;2022-09-19T14:58:50;4.83;;;1.50;;
14923;SDS011;7554;43.600;1.480;2022-09-19T15:01:20;3.10;;;1.20;;
14923;SDS011;7554;43.600;1.480;2022-09-19T15:03:53;3.03;;;1.43;;
14923;SDS011;7554;43.600;1.480;2022-09-19T15:06:33;5.20;;;1.57;;
14923;SDS011;7554;43.600;1.480;2022-09-19T15:09:02;4.73;;;1.50;;
14923;SDS011;7554;43.600;1.480;2022-09-19T15:11:31;2.37;;;1.40;;
14923;SDS011;7554;43.600;1.480;2022-09-19T15:14:02;3.67;;;1.43;;
14923;SDS011;7554;43.600;1.480;2022-09-19T15:16:31;2.20;;;1.10;;
14923;SDS011;7554;43.600;1.480;2022-09-19T15:18:58;3.10;;;1.40;;
14923;SDS011;7554;43.600;1.480;2022-09-19T15:21:26;3.60;;;1.40;;
14923;SDS011;7554;43.600;1.480;2022-09-19T15:23:57;4.63;;;1.47;;
14923;SDS011;7554;43.600;1.480;2022-09-19T15:26:27;3.93;;;1.40;;
14923;SDS011;7554;43.600;1.480;2022-09-19T15:28:59;6.97;;;1.50;;
14923;SDS011;7554;43.600;1.480;2022-09-19T15:31:28;3.60;;;1.30;;
14923;SDS011;7554;43.600;1.480;2022-09-19T15:34:00;4.03;;;1.33;;
14923;SDS011;7554;43.600;1.480;2022-09-19T15:36:30;4.40;;;1.40;;
14923;SDS011;7554;43.600;1.480;2022-09-19T15:39:00;3.97;;;1.50;;
14923;SDS011;7554;43.600;1.480;2022-09-19T15:41:30;2.07;;;1.10;;
14923;SDS011;7554;43.600;1.480;2022-09-19T15:44:01;4.57;;;1.57;;
14923;SDS011;7554;43.600;1.480;2022-09-19T15:46:34;5.10;;;1.37;;
14923;SDS011;7554;43.600;1.480;2022-09-19T15:49:08;3.43;;;1.40;;
14923;SDS011;7554;43.600;1.480;2022-09-19T15:51:55;3.87;;;1.20;;
14923;SDS011;7554;43.600;1.480;2022-09-19T15:54:25;2.50;;;1.40;;
14923;SDS011;7554;43.600;1.480;2022-09-19T15:56:56;2.20;;;1.20;;
14923;SDS011;7554;43.600;1.480;2022-09-19T15:59:28;1.90;;;1.50;;
14923;SDS011;7554;43.600;1.480;2022-09-19T16:02:02;2.10;;;1.30;;
14923;SDS011;7554;43.600;1.480;2022-09-19T16:04:33;3.40;;;1.27;;
14923;SDS011;7554;43.600;1.480;2022-09-19T16:07:01;4.27;;;1.50;;
14923;SDS011;7554;43.600;1.480;2022-09-19T16:10:08;3.63;;;1.40;;
14923;SDS011;7554;43.600;1.480;2022-09-19T16:12:40;2.67;;;1.47;;
14923;SDS011;7554;43.600;1.480;2022-09-19T16:15:21;2.87;;;1.30;;